createdAt,value
2018-03-01T00:00:16.169Z,81.16
2018-03-01T00:01:25.685Z,81.07
2018-03-01T00:02:35.740Z,80.98
2018-03-01T00:03:45.252Z,80.98
2018-03-01T00:04:55.312Z,81.07
2018-03-01T00:06:04.888Z,80.69
2018-03-01T00:07:14.679Z,80.98
2018-03-01T00:08:24.210Z,81.07
2018-03-01T00:09:34.255Z,80.69
2018-03-01T00:10:44.091Z,81.16
2018-03-01T00:11:54.137Z,81.07
2018-03-01T00:13:04.187Z,80.98
2018-03-01T00:14:13.471Z,80.88
2018-03-01T00:15:23.259Z,81.07
2018-03-01T00:16:33.070Z,81.07
2018-03-01T00:17:42.865Z,81.07
2018-03-01T00:18:52.950Z,81.07
2018-03-01T00:20:02.996Z,81.16
2018-03-01T00:21:12.798Z,81.07
2018-03-01T00:22:22.431Z,80.69
2018-03-01T00:23:32.193Z,80.98
2018-03-01T00:24:41.177Z,80.98
2018-03-01T00:25:51.228Z,80.98
2018-03-01T00:27:01.269Z,80.6
2018-03-01T00:28:11.072Z,80.69
2018-03-01T00:29:20.583Z,80.98
2018-03-01T00:30:30.646Z,81.16
2018-03-01T00:31:40.463Z,81.16
2018-03-01T00:32:50.248Z,81.07
2018-03-01T00:34:00.099Z,81.07
2018-03-01T00:35:09.892Z,80.88
2018-03-01T00:36:19.941Z,80.88
2018-03-01T00:37:29.990Z,81.07
2018-03-01T00:38:40.052Z,81.26
2018-03-01T00:39:50.104Z,80.98
2018-03-01T00:40:59.627Z,81.26
2018-03-01T00:42:09.177Z,81.26
2018-03-01T00:43:18.966Z,80.79
2018-03-01T00:44:29.021Z,80.98
2018-03-01T00:45:39.078Z,81.07
2018-03-01T00:46:48.358Z,81.26
2018-03-01T00:47:58.433Z,81.26
2018-03-01T00:49:08.489Z,81.26
2018-03-01T00:50:18.269Z,81.16
2018-03-01T00:51:28.071Z,80.84
2018-03-01T00:52:38.142Z,81.16
2018-03-01T00:53:47.683Z,81.35
2018-03-01T00:54:57.466Z,81.22
2018-03-01T00:56:07.514Z,81.22
2018-03-01T00:57:17.059Z,81.22
2018-03-01T00:58:26.837Z,81.31
2018-03-01T00:59:36.892Z,81.31
2018-03-01T01:00:46.694Z,81.12
2018-03-01T01:01:56.748Z,81.22
2018-03-01T01:03:06.267Z,81.22
2018-03-01T01:04:15.781Z,81.22
2018-03-01T01:05:25.563Z,81.12
2018-03-01T01:06:35.621Z,81.12
2018-03-01T01:07:45.685Z,81.22
2018-03-01T01:08:55.477Z,81.12
2018-03-01T01:10:05.529Z,81.22
2018-03-01T01:11:15.313Z,81.12
2018-03-01T01:12:25.077Z,81.12
2018-03-01T01:13:35.115Z,81.22
2018-03-01T01:14:44.628Z,81.03
2018-03-01T01:15:54.657Z,81.03
2018-03-01T01:17:04.443Z,81.22
2018-03-01T01:18:14.524Z,80.93
2018-03-01T01:19:24.032Z,81.31
2018-03-01T01:20:33.824Z,81.22
2018-03-01T01:21:43.596Z,81.22
2018-03-01T01:22:53.373Z,81.12
2018-03-01T01:24:03.180Z,81.12
2018-03-01T01:25:13.021Z,81.12
2018-03-01T01:26:23.070Z,81.03
2018-03-01T01:27:33.126Z,81.03
2018-03-01T01:28:43.156Z,81.12
2018-03-01T01:29:52.399Z,81.31
2018-03-01T01:31:02.183Z,81.22
2018-03-01T01:32:12.228Z,81.22
2018-03-01T01:33:22.009Z,81.22
2018-03-01T01:34:31.262Z,81.31
2018-03-01T01:35:41.357Z,81.12
2018-03-01T01:36:51.145Z,81.22
2018-03-01T01:38:00.667Z,81.31
2018-03-01T01:39:10.453Z,81.22
2018-03-01T01:40:20.259Z,81.59
2018-03-01T01:41:30.303Z,81.31
2018-03-01T01:42:39.827Z,81.41
2018-03-01T01:43:49.598Z,81.22
2018-03-01T01:44:59.384Z,81.12
2018-03-01T01:46:09.164Z,81.12
2018-03-01T01:47:19.235Z,81.12
2018-03-01T01:48:29.082Z,81.22
2018-03-01T01:49:39.129Z,81.12
2018-03-01T01:50:49.191Z,81.12
2018-03-01T01:51:58.970Z,81.22
2018-03-01T01:53:08.746Z,81.22
2018-03-01T01:54:18.585Z,81.22
2018-03-01T01:55:28.372Z,81.03
2018-03-01T01:56:38.181Z,80.93
2018-03-01T01:57:48.021Z,81.03
2018-03-01T01:58:57.799Z,81.03
2018-03-01T02:00:07.753Z,81.03
2018-03-01T02:01:17.531Z,81.03
2018-03-01T02:02:27.588Z,81.12
2018-03-01T02:03:37.103Z,81.12
2018-03-01T02:04:47.143Z,80.84
2018-03-01T02:05:57.192Z,80.93
2018-03-01T02:07:07.255Z,81.03
2018-03-01T02:08:17.027Z,80.93
2018-03-01T02:09:27.158Z,81.03
2018-03-01T02:10:36.946Z,80.74
2018-03-01T02:11:46.470Z,80.84
2018-03-01T02:12:56.233Z,80.84
2018-03-01T02:14:06.280Z,80.65
2018-03-01T02:15:16.331Z,80.84
2018-03-01T02:16:26.380Z,80.74
2018-03-01T02:17:36.167Z,80.65
2018-03-01T02:18:46.220Z,80.93
2018-03-01T02:19:56.246Z,81.12
2018-03-01T02:21:05.824Z,81.31
2018-03-01T02:22:15.883Z,80.84
2018-03-01T02:23:25.926Z,80.93
2018-03-01T02:24:35.715Z,81.03
2018-03-01T02:25:45.764Z,81.12
2018-03-01T02:26:55.276Z,81.12
2018-03-01T02:28:05.079Z,81.22
2018-03-01T02:29:15.128Z,80.84
2018-03-01T02:30:25.176Z,81.22
2018-03-01T02:31:35.226Z,81.12
2018-03-01T02:32:45.075Z,81.12
2018-03-01T02:33:55.152Z,81.12
2018-03-01T02:35:05.218Z,80.46
2018-03-01T02:36:15.005Z,80.37
2018-03-01T02:37:25.063Z,80.18
2018-03-01T02:38:34.857Z,80.37
2018-03-01T02:39:44.893Z,80.18
2018-03-01T02:40:54.671Z,80.46
2018-03-01T02:42:04.723Z,80.46
2018-03-01T02:43:14.800Z,80.18
2018-03-01T02:44:24.575Z,80.42
2018-03-01T02:45:34.627Z,80.27
2018-03-01T02:46:44.695Z,80.33
2018-03-01T02:47:54.484Z,80.14
2018-03-01T02:49:04.282Z,80.52
2018-03-01T02:50:14.312Z,80.52
2018-03-01T02:51:23.829Z,80.8
2018-03-01T02:52:33.879Z,80.52
2018-03-01T02:53:43.940Z,80.56
2018-03-01T02:54:53.453Z,80.61
2018-03-01T02:56:03.493Z,80.52
2018-03-01T02:57:13.276Z,80.61
2018-03-01T02:58:23.461Z,80.8
2018-03-01T02:59:33.980Z,80.52
2018-03-01T03:00:43.780Z,80.52
2018-03-01T03:01:53.827Z,80.33
2018-03-01T03:03:03.353Z,80.33
2018-03-01T03:04:13.140Z,80.52
2018-03-01T03:05:23.250Z,80.33
2018-03-01T03:06:33.305Z,80.24
2018-03-01T03:07:43.084Z,80.8
2018-03-01T03:39:08.768Z,76.71
2018-03-01T03:40:18.784Z,77.18
2018-03-01T03:41:28.844Z,77.47
2018-03-01T03:42:38.893Z,78.35
2018-03-01T03:43:48.672Z,79.1
2018-03-01T03:44:58.448Z,80.33
2018-03-01T03:46:08.489Z,80.33
2018-03-01T03:47:17.997Z,81.18
2018-03-01T03:48:28.048Z,81.27
2018-03-01T03:49:38.090Z,81.18
2018-03-01T03:50:47.893Z,81.84
2018-03-01T03:51:57.932Z,81.93
2018-03-01T03:53:07.982Z,81.56
2018-03-01T03:54:18.026Z,81.93
2018-03-01T03:55:28.084Z,82.31
2018-03-01T03:56:38.127Z,82.21
2018-03-01T03:57:48.166Z,81.65
2018-03-01T03:58:58.206Z,81.59
2018-03-01T04:00:08.284Z,81.78
2018-03-01T04:01:18.334Z,81.5
2018-03-01T04:02:28.379Z,81.88
2018-03-01T04:03:38.213Z,81.78
2018-03-01T04:04:48.030Z,82.07
2018-03-01T04:05:58.060Z,81.69
2018-03-01T04:07:08.114Z,81.59
2018-03-01T04:08:17.946Z,81.5
2018-03-01T04:09:27.726Z,81.03
2018-03-01T04:10:37.501Z,81.41
2018-03-01T04:11:47.556Z,81.31
2018-03-01T04:12:57.605Z,81.22
2018-03-01T04:14:07.652Z,81.22
2018-03-01T04:15:17.430Z,81.41
2018-03-01T04:16:27.235Z,81.41
2018-03-01T04:17:37.031Z,81.31
2018-03-01T04:18:47.074Z,81.12
2018-03-01T04:19:57.159Z,81.59
2018-03-01T04:21:07.205Z,81.59
2018-03-01T04:22:16.721Z,81.59
2018-03-01T04:23:26.772Z,81.59
2018-03-01T04:24:36.818Z,81.59
2018-03-01T04:25:46.385Z,81.12
2018-03-01T04:26:56.181Z,81.59
2018-03-01T04:28:06.229Z,81.5
2018-03-01T04:29:15.757Z,81.59
2018-03-01T04:30:25.807Z,81.41
2018-03-01T04:31:35.846Z,81.59
2018-03-01T04:32:45.113Z,81.03
2018-03-01T04:33:54.889Z,81.03
2018-03-01T04:35:04.413Z,81.22
2018-03-01T04:36:14.458Z,81.41
2018-03-01T04:37:23.975Z,81.31
2018-03-01T04:38:33.766Z,81.31
2018-03-01T04:39:43.815Z,81.12
2018-03-01T04:40:53.877Z,81.22
2018-03-01T04:42:03.942Z,81.03
2018-03-01T04:43:13.996Z,81.12
2018-03-01T04:44:23.773Z,81.12
2018-03-01T04:45:33.821Z,81.22
2018-03-01T04:46:43.880Z,81.12
2018-03-01T04:47:53.916Z,81.41
2018-03-01T04:49:04.040Z,81.31
2018-03-01T04:50:14.117Z,81.41
2018-03-01T04:51:24.190Z,81.41
2018-03-01T04:52:34.261Z,81.41
2018-03-01T04:53:43.767Z,81.41
2018-03-01T04:54:53.554Z,81.31
2018-03-01T04:56:03.344Z,81.41
2018-03-01T04:57:13.132Z,81.41
2018-03-01T04:58:22.941Z,81.41
2018-03-01T04:59:32.780Z,81.69
2018-03-01T05:00:42.886Z,81.41
2018-03-01T05:01:52.673Z,80.84
2018-03-01T05:03:02.726Z,81.5
2018-03-01T05:04:12.767Z,81.5
2018-03-01T05:05:22.545Z,81.78
2018-03-01T05:06:32.380Z,81.03
2018-03-01T05:07:42.424Z,81.5
2018-03-01T05:08:52.496Z,81.03
2018-03-01T05:10:02.533Z,81.03
2018-03-01T05:11:12.329Z,81.78
2018-03-01T05:12:22.116Z,81.59
2018-03-01T05:13:32.163Z,81.5
2018-03-01T05:14:42.210Z,81.5
2018-03-01T05:15:52.305Z,81.12
2018-03-01T05:17:02.358Z,81.31
2018-03-01T05:18:11.884Z,81.59
2018-03-01T05:19:21.950Z,81.5
2018-03-01T05:20:31.477Z,81.31
2018-03-01T05:21:41.549Z,80.93
2018-03-01T05:22:51.588Z,81.59
2018-03-01T05:24:01.368Z,81.5
2018-03-01T05:25:11.414Z,81.59
2018-03-01T05:26:21.483Z,81.5
2018-03-01T05:27:31.283Z,81.31
2018-03-01T05:28:41.343Z,81.5
2018-03-01T05:29:51.391Z,81.41
2018-03-01T05:31:00.910Z,81.5
2018-03-01T05:32:10.965Z,81.59
2018-03-01T05:33:21.020Z,81.69
2018-03-01T05:34:31.079Z,81.41
2018-03-01T05:35:40.357Z,81.41
2018-03-01T05:36:50.165Z,81.5
2018-03-01T05:38:00.229Z,81.5
2018-03-01T05:39:10.272Z,81.5
2018-03-01T05:40:20.332Z,81.41
2018-03-01T05:41:30.678Z,81.31
2018-03-01T05:42:40.722Z,81.22
2018-03-01T05:43:50.503Z,81.31
2018-03-01T05:45:00.538Z,81.12
2018-03-01T05:46:10.590Z,81.12
2018-03-01T05:47:20.417Z,81.31
2018-03-01T05:48:30.470Z,81.03
2018-03-01T05:49:40.501Z,81.03
2018-03-01T05:50:50.610Z,81.31
2018-03-01T05:52:00.664Z,81.22
2018-03-01T05:53:10.763Z,81.03
2018-03-01T05:54:20.553Z,80.93
2018-03-01T05:55:30.330Z,81.22
2018-03-01T05:56:40.123Z,81.12
2018-03-01T05:57:49.920Z,81.03
2018-03-01T05:58:59.729Z,81.03
2018-03-01T06:00:09.513Z,80.93
2018-03-01T06:01:19.040Z,81.12
2018-03-01T06:02:29.097Z,80.93
2018-03-01T06:03:38.703Z,80.93
2018-03-01T06:04:48.553Z,80.84
2018-03-01T06:05:58.599Z,80.74
2018-03-01T06:07:08.374Z,80.74
2018-03-01T06:08:18.158Z,80.65
2018-03-01T06:09:28.054Z,80.65
2018-03-01T06:10:38.162Z,81.12
2018-03-01T06:11:48.237Z,81.12
2018-03-01T06:12:58.026Z,81.22
2018-03-01T06:14:07.812Z,81.31
2018-03-01T06:15:17.865Z,81.22
2018-03-01T06:16:27.658Z,81.31
2018-03-01T06:17:37.693Z,81.22
2018-03-01T06:18:47.760Z,81.03
2018-03-01T06:19:57.862Z,81.03
2018-03-01T06:21:07.630Z,81.03
2018-03-01T06:22:17.408Z,81.31
2018-03-01T06:23:27.192Z,81.12
2018-03-01T06:24:37.239Z,80.74
2018-03-01T06:25:47.035Z,81.22
2018-03-01T06:26:57.080Z,80.27
2018-03-01T06:28:06.654Z,81.12
2018-03-01T06:29:16.695Z,81.16
2018-03-01T06:30:26.474Z,80.22
2018-03-01T06:31:36.254Z,80.41
2018-03-01T06:32:46.300Z,80.51
2018-03-01T06:33:56.343Z,80.41
2018-03-01T06:35:06.370Z,80.51
2018-03-01T06:36:16.474Z,80.79
2018-03-01T06:37:26.264Z,80.88
2018-03-01T06:38:36.060Z,80.22
2018-03-01T06:39:46.106Z,80.22
2018-03-01T06:40:56.149Z,80.41
2018-03-01T06:42:05.946Z,80.41
2018-03-01T06:43:15.976Z,80.6
2018-03-01T06:44:25.778Z,80.51
2018-03-01T06:45:35.836Z,80.88
2018-03-01T06:46:45.627Z,80.79
2018-03-01T06:47:55.684Z,80.41
2018-03-01T06:49:05.793Z,80.41
2018-03-01T06:50:15.937Z,80.41
2018-03-01T06:51:25.734Z,80.69
2018-03-01T06:52:35.527Z,80.6
2018-03-01T06:53:45.302Z,80.32
2018-03-01T06:54:55.335Z,80.32
2018-03-01T06:56:04.952Z,80.6
2018-03-01T06:57:14.844Z,80.22
2018-03-01T06:58:24.647Z,80.79
2018-03-01T06:59:34.428Z,80.41
2018-03-01T07:00:44.199Z,80.22
2018-03-01T07:01:54.000Z,80.6
2018-03-01T07:03:04.072Z,80.6
2018-03-01T07:04:13.864Z,80.6
2018-03-01T07:05:23.931Z,80.41
2018-03-01T07:06:33.717Z,80.6
2018-03-01T07:07:43.523Z,80.51
2018-03-01T07:08:53.631Z,80.6
2018-03-01T07:10:03.400Z,80.69
2018-03-01T07:11:13.519Z,80.73
2018-03-01T07:12:23.744Z,80.45
2018-03-01T07:13:33.547Z,81.02
2018-03-01T07:14:43.342Z,80.54
2018-03-01T07:15:53.388Z,80.92
2018-03-01T07:17:03.417Z,80.64
2018-03-01T07:18:13.211Z,80.54
2018-03-01T07:19:23.276Z,80.26
2018-03-01T07:20:33.335Z,80.64
2018-03-01T07:21:43.405Z,80.83
2018-03-01T07:22:53.193Z,80.26
2018-03-01T07:24:03.260Z,80.83
2018-03-01T07:25:12.797Z,80.36
2018-03-01T07:26:22.423Z,80.45
2018-03-01T07:27:31.945Z,80.92
2018-03-01T07:28:41.484Z,80.73
2018-03-01T07:29:51.519Z,80.73
2018-03-01T07:31:01.318Z,80.45
2018-03-01T07:32:10.901Z,80.54
2018-03-01T07:33:20.948Z,80.17
2018-03-01T07:34:30.765Z,80.73
2018-03-01T07:35:40.300Z,80.36
2018-03-01T07:36:49.829Z,80.64
2018-03-01T07:38:00.001Z,80.45
2018-03-01T07:39:09.533Z,80.92
2018-03-01T07:40:19.070Z,80.49
2018-03-01T07:41:28.877Z,80.58
2018-03-01T07:42:38.912Z,80.96
2018-03-01T07:43:48.709Z,80.68
2018-03-01T07:44:58.754Z,80.68
2018-03-01T07:46:08.543Z,80.77
2018-03-01T07:47:18.809Z,80.58
2018-03-01T07:48:28.605Z,80.77
2018-03-01T07:49:38.382Z,80.68
2018-03-01T07:50:48.169Z,80.96
2018-03-01T07:51:57.975Z,80.58
2018-03-01T07:53:08.026Z,80.77
2018-03-01T07:54:18.074Z,80.68
2018-03-01T07:55:28.144Z,80.49
2018-03-01T07:56:37.939Z,80.77
2018-03-01T07:57:47.987Z,80.96
2018-03-01T07:58:57.791Z,80.96
2018-03-01T08:00:07.597Z,80.58
2018-03-01T08:01:17.663Z,80.96
2018-03-01T08:02:27.188Z,81.01
2018-03-01T08:03:37.248Z,80.82
2018-03-01T08:04:46.777Z,80.91
2018-03-01T08:05:56.588Z,80.63
2018-03-01T08:07:06.653Z,80.72
2018-03-01T08:08:16.166Z,80.63
2018-03-01T08:09:25.968Z,80.53
2018-03-01T08:10:36.056Z,80.63
2018-03-01T08:11:45.867Z,81.2
2018-03-01T08:12:55.924Z,80.63
2018-03-01T08:14:04.919Z,80.82
2018-03-01T08:15:14.984Z,80.44
2018-03-01T08:16:24.769Z,80.53
2018-03-01T08:17:34.308Z,80.63
2018-03-01T08:18:43.827Z,80.53
2018-03-01T08:19:53.608Z,80.53
2018-03-01T08:21:03.415Z,80.34
2018-03-01T08:22:13.207Z,80.82
2018-03-01T08:23:22.995Z,80.82
2018-03-01T08:24:33.055Z,80.34
2018-03-01T08:25:43.104Z,81.01
2018-03-01T08:26:53.173Z,80.91
2018-03-01T08:28:03.242Z,81.01
2018-03-01T08:29:13.332Z,80.91
2018-03-01T08:30:23.234Z,80.66
2018-03-01T08:31:33.278Z,80.72
2018-03-01T08:32:43.071Z,80.95
2018-03-01T08:33:53.116Z,81.04
2018-03-01T08:35:03.176Z,80.85
2018-03-01T08:36:13.317Z,81.04
2018-03-01T08:37:23.114Z,81.23
2018-03-01T08:38:33.285Z,80.76
2018-03-01T08:39:43.332Z,80.38
2018-03-01T08:40:53.395Z,80.48
2018-03-01T08:42:03.492Z,80.95
2018-03-01T08:43:13.280Z,81.14
2018-03-01T08:44:23.332Z,80.76
2018-03-01T08:45:33.155Z,80.66
2018-03-01T08:46:42.965Z,81.23
2018-03-01T08:47:53.046Z,80.66
2018-03-01T08:49:03.094Z,80.43
2018-03-01T08:50:12.899Z,80.43
2018-03-01T08:51:22.962Z,80.8
2018-03-01T08:52:32.484Z,80.9
2018-03-01T08:53:42.330Z,81.09
2018-03-01T08:54:52.385Z,80.99
2018-03-01T08:56:02.493Z,80.52
2018-03-01T08:57:12.030Z,80.71
2018-03-01T08:58:22.102Z,80.9
2018-03-01T08:59:31.905Z,80.37
2018-03-01T09:00:41.195Z,80.65
2018-03-01T09:01:51.257Z,80.56
2018-03-01T09:03:01.069Z,80.84
2018-03-01T09:04:11.122Z,80.65
2018-03-01T09:05:21.411Z,80.75
2018-03-01T09:06:31.473Z,80.84
2018-03-01T09:07:41.257Z,80.56
2018-03-01T09:08:50.783Z,80.75
2018-03-01T09:10:00.586Z,80.65
2018-03-01T09:11:10.581Z,80.75
2018-03-01T09:12:20.638Z,80.84
2018-03-01T09:13:30.705Z,80.65
2018-03-01T09:14:40.742Z,80.46
2018-03-01T09:15:50.548Z,80.56
2018-03-01T09:17:00.085Z,80.84
2018-03-01T09:18:09.620Z,80.56
2018-03-01T09:19:19.685Z,81.03
2018-03-01T09:20:29.535Z,80.79
2018-03-01T09:21:39.326Z,80.13
2018-03-01T09:22:49.378Z,80.6
2018-03-01T09:23:59.171Z,80.22
2018-03-01T09:25:09.242Z,80.22
2018-03-01T09:26:19.308Z,80.51
2018-03-01T09:27:29.360Z,80.41
2018-03-01T09:28:39.483Z,80.22
2018-03-01T09:29:49.279Z,80.79
2018-03-01T09:30:58.817Z,80.51
2018-03-01T09:32:08.355Z,80.04
2018-03-01T09:33:18.420Z,80.22
2018-03-01T09:34:28.516Z,80.41
2018-03-01T09:35:38.600Z,80.69
2018-03-01T09:36:48.711Z,80.98
2018-03-01T09:37:58.760Z,80.51
2018-03-01T09:39:08.575Z,80.88
2018-03-01T09:40:18.693Z,80.98
2018-03-01T09:41:29.032Z,80.51
2018-03-01T09:42:39.093Z,80.51
2018-03-01T09:43:49.168Z,80.69
2018-03-01T09:44:58.956Z,81.07
2018-03-01T09:46:09.048Z,80.51
2018-03-01T09:47:18.872Z,80.79
2018-03-01T09:48:28.943Z,80.41
2018-03-01T09:49:38.488Z,80.22
2018-03-01T09:50:48.290Z,80.13
2018-03-01T09:51:58.127Z,80.41
2018-03-01T09:53:08.190Z,80.32
2018-03-01T09:54:18.247Z,80.6
2018-03-01T09:55:28.340Z,80.51
2018-03-01T09:56:38.430Z,80.45
2018-03-01T09:57:48.496Z,80.36
2018-03-01T09:58:58.627Z,80.36
2018-03-01T10:00:08.681Z,80.51
2018-03-01T10:01:18.261Z,80.64
2018-03-01T10:02:28.049Z,80.45
2018-03-01T10:03:37.910Z,80.55
2018-03-01T10:04:48.009Z,80.74
2018-03-01T10:05:57.813Z,80.45
2018-03-01T10:07:07.105Z,80.17
2018-03-01T10:08:17.233Z,80.36
2018-03-01T10:09:27.079Z,80.36
2018-03-01T10:10:37.136Z,80.64
2018-03-01T10:11:47.472Z,80.36
2018-03-01T10:12:57.292Z,80.26
2018-03-01T10:14:06.816Z,80.74
2018-03-01T10:15:16.671Z,80.74
2018-03-01T10:16:25.953Z,80.93
2018-03-01T10:17:35.516Z,81.21
2018-03-01T10:18:45.057Z,80.74
2018-03-01T10:19:54.601Z,80.93
2018-03-01T10:21:04.672Z,80.74
2018-03-01T10:22:14.492Z,81.4
2018-03-01T10:23:24.301Z,80.55
2018-03-01T10:24:34.373Z,81.12
2018-03-01T10:25:44.184Z,81.17
2018-03-01T10:26:54.246Z,80.83
2018-03-01T10:28:04.319Z,80.55
2018-03-01T10:29:13.880Z,81.12
2018-03-01T10:30:23.942Z,80.98
2018-03-01T10:31:33.479Z,80.69
2018-03-01T10:32:43.529Z,80.79
2018-03-01T10:33:53.336Z,80.79
2018-03-01T10:35:03.140Z,80.79
2018-03-01T10:36:13.193Z,80.69
2018-03-01T10:37:22.742Z,80.88
2018-03-01T10:38:32.845Z,80.51
2018-03-01T10:39:42.935Z,80.6
2018-03-01T10:40:53.002Z,80.98
2018-03-01T10:42:02.856Z,80.55
2018-03-01T10:43:12.671Z,80.45
2018-03-01T10:44:27.445Z,80.55
2018-03-01T10:45:42.635Z,79.98
2018-03-01T10:46:52.464Z,79.98
2018-03-01T10:48:02.552Z,80.45
2018-03-01T10:49:12.622Z,80.26
2018-03-01T10:50:22.430Z,80.45
2018-03-01T10:51:32.499Z,80.26
2018-03-01T10:52:45.840Z,80.74
2018-03-01T10:53:58.968Z,80.83
2018-03-01T10:55:08.346Z,80.55
2018-03-01T10:56:18.455Z,80.98
2018-03-01T10:57:28.256Z,81.07
2018-03-01T10:58:38.063Z,81.17
2018-03-01T10:59:47.881Z,81.17
2018-03-01T11:00:57.956Z,81.36
2018-03-01T11:02:08.069Z,81.45
2018-03-01T11:03:18.149Z,81.36
2018-03-01T11:04:28.016Z,81.26
2018-03-01T11:05:37.837Z,81.36
2018-03-01T11:06:47.409Z,81.36
2018-03-01T11:07:56.942Z,81.17
2018-03-01T11:09:06.754Z,81.26
2018-03-01T11:10:16.836Z,81.17
2018-03-01T11:11:26.397Z,81.36
2018-03-01T11:12:36.545Z,81.74
2018-03-01T11:13:46.374Z,81.83
2018-03-01T11:14:56.207Z,81.36
2018-03-01T11:16:06.331Z,81.74
2018-03-01T11:17:16.186Z,82.02
2018-03-01T11:18:26.374Z,81.36
2018-03-01T11:19:36.471Z,81.26
2018-03-01T11:20:46.007Z,81.17
2018-03-01T11:21:55.545Z,81.74
2018-03-01T11:23:05.402Z,81.26
2018-03-01T11:24:14.679Z,81.36
2018-03-01T11:25:24.489Z,81.07
2018-03-01T11:26:34.327Z,81.26
2018-03-01T11:27:44.396Z,81.36
2018-03-01T11:28:54.555Z,81.6
2018-03-01T11:30:04.734Z,81.55
2018-03-01T11:31:14.257Z,81.45
2018-03-01T11:32:24.345Z,80.6
2018-03-01T11:33:34.145Z,80.64
2018-03-01T11:34:44.242Z,80.07
2018-03-01T11:35:54.578Z,79.32
2018-03-01T11:37:04.379Z,79.69
2018-03-01T11:38:14.162Z,79.88
2018-03-01T11:39:23.985Z,79.79
2018-03-01T11:40:34.040Z,80.02
2018-03-01T11:41:44.104Z,79.83
2018-03-01T11:42:54.174Z,79.55
2018-03-01T11:44:03.707Z,79.55
2018-03-01T11:45:13.758Z,79.83
2018-03-01T11:46:23.566Z,80.02
2018-03-01T11:47:33.634Z,80.45
2018-03-01T11:48:43.460Z,80.74
2018-03-01T11:49:53.525Z,80.45
2018-03-01T11:51:03.588Z,80.93
2018-03-01T11:52:13.429Z,81.4
2018-03-01T11:53:23.277Z,81.3
2018-03-01T11:54:33.098Z,81.64
2018-03-01T11:55:42.924Z,81.74
2018-03-01T11:56:52.727Z,81.74
2018-03-01T11:58:02.802Z,81.55
2018-03-01T11:59:12.623Z,81.45
2018-03-01T12:00:22.746Z,81.45
2018-03-01T12:01:32.853Z,81.36
2018-03-01T12:02:42.433Z,81.64
2018-03-01T12:03:52.249Z,81.64
2018-03-01T12:05:02.375Z,81.74
2018-03-01T12:06:12.495Z,81.36
2018-03-01T12:07:22.318Z,81.36
2018-03-01T12:08:32.434Z,81.36
2018-03-01T12:09:42.541Z,81.17
2018-03-01T12:10:52.456Z,81.07
2018-03-01T12:12:02.291Z,81.36
2018-03-01T12:13:12.378Z,81.55
2018-03-01T12:14:22.198Z,81.07
2018-03-01T12:15:32.272Z,81.36
2018-03-01T12:16:42.462Z,80.69
2018-03-01T12:17:52.553Z,80.88
2018-03-01T12:19:02.631Z,80.69
2018-03-01T12:20:12.448Z,80.74
2018-03-01T12:21:22.508Z,80.83
2018-03-01T12:22:32.604Z,80.45
2018-03-01T12:23:42.671Z,80.93
2018-03-01T12:24:52.728Z,81.36
2018-03-01T12:26:02.536Z,81.45
2018-03-01T12:27:12.633Z,81.07
2018-03-01T12:28:22.804Z,81.93
2018-03-01T12:29:32.889Z,81.93
2018-03-01T12:30:42.703Z,81.74
2018-03-01T12:31:52.801Z,81.64
2018-03-01T12:33:02.908Z,81.55
2018-03-01T12:34:13.027Z,81.55
2018-03-01T12:35:23.115Z,82.02
2018-03-01T12:36:33.194Z,81.98
2018-03-01T12:37:43.002Z,81.98
2018-03-01T12:38:53.073Z,81.7
2018-03-01T12:40:02.906Z,81.79
2018-03-01T12:41:13.006Z,81.7
2018-03-01T12:42:22.845Z,81.51
2018-03-01T12:43:34.093Z,81.55
2018-03-01T12:44:45.559Z,81.79
2018-03-01T12:45:59.941Z,81.88
2018-03-01T12:47:17.902Z,81.7
2018-03-01T12:48:35.409Z,81.51
2018-03-01T12:49:51.455Z,81.98
2018-03-01T12:51:02.067Z,81.6
2018-03-01T12:52:12.228Z,81.51
2018-03-01T12:53:22.298Z,81.32
2018-03-01T12:54:32.376Z,81.51
2018-03-01T12:55:42.462Z,81.7
2018-03-01T12:56:52.537Z,81.7
2018-03-01T12:58:02.625Z,81.17
2018-03-01T12:59:12.672Z,81.55
2018-03-01T13:00:22.465Z,81.17
2018-03-01T13:01:32.274Z,81.07
2018-03-01T13:02:42.434Z,81.36
2018-03-01T13:03:52.501Z,81.98
2018-03-01T13:05:02.573Z,81.6
2018-03-01T13:06:12.679Z,81.79
2018-03-01T13:07:22.740Z,81.41
2018-03-01T13:08:32.582Z,81.6
2018-03-01T13:09:42.632Z,81.79
2018-03-01T13:10:52.717Z,81.88
2018-03-01T13:12:02.266Z,81.7
2018-03-01T13:13:12.334Z,81.7
2018-03-01T13:14:22.452Z,81.79
2018-03-01T13:15:32.535Z,81.36
2018-03-01T13:16:42.635Z,81.45
2018-03-01T13:17:52.704Z,81.79
2018-03-01T13:19:02.532Z,82.17
2018-03-01T13:20:12.391Z,81.51
2018-03-01T13:21:22.209Z,81.74
2018-03-01T13:22:32.030Z,82.02
2018-03-01T13:23:41.838Z,81.64
2018-03-01T13:24:51.943Z,81.93
2018-03-01T13:26:02.074Z,81.93
2018-03-01T13:27:12.232Z,81.74
2018-03-01T13:28:22.055Z,81.74
2018-03-01T13:29:32.180Z,81.45
2018-03-01T13:30:42.263Z,81.64
2018-03-01T13:31:52.093Z,81.55
2018-03-01T13:33:01.896Z,81.93
2018-03-01T13:34:11.780Z,81.55
2018-03-01T13:35:21.569Z,82.07
2018-03-01T13:36:31.649Z,82.07
2018-03-01T13:37:40.938Z,82.64
2018-03-01T13:39:00.595Z,82.73
2018-03-01T13:40:10.694Z,82.07
2018-03-01T13:41:20.786Z,82.45
2018-03-01T13:42:30.868Z,82.64
2018-03-01T13:43:40.978Z,82.64
2018-03-01T13:44:51.119Z,82.07
2018-03-01T13:46:01.219Z,82.73
2018-03-01T13:47:10.771Z,82.64
2018-03-01T13:48:20.841Z,82.64
2018-03-01T13:49:29.860Z,82.45
2018-03-01T13:50:39.971Z,82.26
2018-03-01T13:51:49.793Z,82.45
2018-03-01T13:52:59.352Z,82.92
2018-03-01T13:54:09.437Z,82.64
2018-03-01T13:55:19.526Z,82.83
2018-03-01T13:56:29.608Z,83.21
2018-03-01T13:57:39.160Z,82.83
2018-03-01T13:58:48.990Z,82.54
2018-03-01T13:59:58.773Z,82.64
2018-03-01T14:01:08.827Z,83.11
2018-03-01T14:02:18.960Z,82.41
2018-03-01T14:03:29.033Z,82.79
2018-03-01T14:04:38.836Z,82.79
2018-03-01T14:05:48.650Z,82.88
2018-03-01T14:06:58.476Z,82.88
2018-03-01T14:08:08.318Z,82.88
2018-03-01T14:09:18.376Z,82.6
2018-03-01T14:10:27.944Z,83.07
2018-03-01T14:11:37.768Z,82.5
2018-03-01T14:12:47.551Z,82.31
2018-03-01T14:13:57.609Z,82.69
2018-03-01T14:15:07.411Z,82.5
2018-03-01T14:16:17.495Z,82.6
2018-03-01T14:17:27.338Z,82.6
2018-03-01T14:18:36.874Z,82.6
2018-03-01T14:19:46.963Z,82.6
2018-03-01T14:20:56.756Z,82.88
2018-03-01T14:22:06.566Z,82.98
2018-03-01T14:23:16.651Z,83.17
2018-03-01T14:24:26.436Z,82.88
2018-03-01T14:25:36.620Z,82.98
2018-03-01T14:26:46.430Z,82.98
2018-03-01T14:27:55.992Z,82.98
2018-03-01T14:29:05.783Z,82.79
2018-03-01T14:30:15.853Z,82.6
2018-03-01T14:31:25.900Z,82.88
2018-03-01T14:32:35.216Z,82.5
2018-03-01T14:33:45.268Z,82.69
2018-03-01T14:34:55.062Z,82.6
2018-03-01T14:36:04.875Z,82.79
2018-03-01T14:37:14.995Z,82.79
2018-03-01T14:38:25.126Z,82.6
2018-03-01T14:39:35.207Z,83.07
2018-03-01T14:40:45.029Z,83.07
2018-03-01T14:41:54.310Z,82.88
2018-03-01T14:43:04.120Z,82.69
2018-03-01T14:44:14.188Z,82.79
2018-03-01T14:45:24.263Z,82.79
2018-03-01T14:46:34.320Z,82.5
2018-03-01T14:47:44.142Z,82.98
2018-03-01T14:48:54.266Z,82.69
2018-03-01T14:50:04.124Z,82.6
2018-03-01T14:51:13.930Z,82.6
2018-03-01T14:52:24.003Z,82.88
2018-03-01T14:53:34.083Z,82.6
2018-03-01T14:54:43.879Z,82.69
2018-03-01T14:55:54.038Z,82.88
2018-03-01T14:57:03.840Z,83.26
2018-03-01T14:58:13.389Z,83.17
2018-03-01T14:59:22.944Z,82.98
2018-03-01T15:00:32.474Z,83.07
2018-03-01T15:01:42.595Z,82.5
2018-03-01T15:02:52.672Z,82.69
2018-03-01T15:04:02.753Z,82.88
2018-03-01T15:05:12.555Z,82.69
2018-03-01T15:06:21.860Z,82.6
2018-03-01T15:07:31.913Z,82.6
2018-03-01T15:08:41.702Z,82.98
2018-03-01T15:09:51.764Z,82.88
2018-03-01T15:11:01.583Z,82.98
2018-03-01T15:12:11.391Z,83.17
2018-03-01T15:13:21.211Z,83.45
2018-03-01T15:14:30.746Z,83.45
2018-03-01T15:15:40.802Z,83.54
2018-03-01T15:16:50.637Z,83.17
2018-03-01T15:18:00.174Z,83.07
2018-03-01T15:19:10.031Z,83.17
2018-03-01T15:20:19.830Z,83.26
2018-03-01T15:21:29.930Z,83.26
2018-03-01T15:22:39.751Z,83.26
2018-03-01T15:23:49.820Z,83.17
2018-03-01T15:24:59.922Z,82.88
2018-03-01T15:26:09.732Z,83.07
2018-03-01T15:27:19.812Z,83.64
2018-03-01T15:28:29.616Z,83.17
2018-03-01T15:29:39.143Z,83.07
2018-03-01T15:30:49.261Z,83.07
2018-03-01T15:31:59.351Z,83.17
2018-03-01T15:33:09.422Z,83.26